createdAt,value
2019-01-10T00:00:25.100Z,18.41
2019-01-10T00:01:25.113Z,18.47
2019-01-10T00:02:25.095Z,18.42
2019-01-10T00:03:25.059Z,18.46
2019-01-10T00:04:25.047Z,18.46
2019-01-10T00:05:25.053Z,18.41
2019-01-10T00:06:25.110Z,18.41
2019-01-10T00:07:25.011Z,18.44
2019-01-10T00:08:25.007Z,18.42
2019-01-10T00:09:24.989Z,18.36
2019-01-10T00:10:25.002Z,18.41
2019-01-10T00:11:24.997Z,18.35
2019-01-10T00:12:24.987Z,18.46
2019-01-10T00:13:24.943Z,18.46
2019-01-10T00:14:25.037Z,18.38
2019-01-10T00:15:24.923Z,18.38
2019-01-10T00:16:24.956Z,18.46
2019-01-10T00:17:24.940Z,18.46
2019-01-10T00:18:25.025Z,18.41
2019-01-10T00:19:24.878Z,18.46
2019-01-10T00:20:24.989Z,18.46
2019-01-10T00:21:24.865Z,18.41
2019-01-10T00:22:24.858Z,18.38
2019-01-10T00:23:24.895Z,18.39
2019-01-10T00:24:24.823Z,18.36
2019-01-10T00:25:24.814Z,18.42
2019-01-10T00:26:24.838Z,18.46
2019-01-10T00:27:24.810Z,18.47
2019-01-10T00:28:24.835Z,18.49
2019-01-10T00:29:24.865Z,18.44
2019-01-10T00:30:24.763Z,18.46
2019-01-10T00:31:24.744Z,18.42
2019-01-10T00:32:24.753Z,18.50
2019-01-10T00:33:24.736Z,18.44
2019-01-10T00:34:24.734Z,18.39
2019-01-10T00:35:24.696Z,18.34
2019-01-10T00:36:24.690Z,18.42
2019-01-10T00:37:24.753Z,18.41
2019-01-10T00:38:24.695Z,18.39
2019-01-10T00:39:24.675Z,18.42
2019-01-10T00:40:24.670Z,18.39
2019-01-10T00:41:24.630Z,18.42
2019-01-10T00:42:24.648Z,18.35
2019-01-10T00:43:24.622Z,18.44
2019-01-10T00:44:24.593Z,18.44
2019-01-10T00:45:24.610Z,18.47
2019-01-10T00:46:24.608Z,18.39
2019-01-10T00:47:24.579Z,18.44
2019-01-10T00:48:24.576Z,18.42
2019-01-10T00:49:24.551Z,18.51
2019-01-10T00:50:24.579Z,18.49
2019-01-10T00:51:24.533Z,18.46
2019-01-10T00:52:24.517Z,18.46
2019-01-10T00:53:24.495Z,18.38
2019-01-10T00:54:24.486Z,18.38
2019-01-10T00:55:24.468Z,18.39
2019-01-10T00:56:24.511Z,18.34
2019-01-10T00:57:24.480Z,18.42
2019-01-10T00:58:24.485Z,18.41
2019-01-10T00:59:24.439Z,18.42
2019-01-10T01:00:24.417Z,18.41
2019-01-10T01:01:24.444Z,18.42
2019-01-10T01:02:24.417Z,18.41
2019-01-10T01:03:24.404Z,18.49
2019-01-10T01:04:24.391Z,18.42
2019-01-10T01:05:24.383Z,18.46
2019-01-10T01:06:24.368Z,18.51
2019-01-10T01:07:24.373Z,18.46
2019-01-10T01:08:24.336Z,18.44
2019-01-10T01:09:24.316Z,18.39
2019-01-10T01:10:24.311Z,18.42
2019-01-10T01:11:24.316Z,18.38
2019-01-10T01:12:24.306Z,18.38
2019-01-10T01:13:24.341Z,18.49
2019-01-10T01:14:24.282Z,18.46
2019-01-10T01:15:24.252Z,18.44
2019-01-10T01:16:24.273Z,18.39
2019-01-10T01:17:24.369Z,18.39
2019-01-10T01:18:24.220Z,18.41
2019-01-10T01:19:24.417Z,18.44
2019-01-10T01:20:24.219Z,18.46
2019-01-10T01:21:24.215Z,18.44
2019-01-10T01:22:24.191Z,18.44
2019-01-10T01:23:24.164Z,18.47
2019-01-10T01:24:24.168Z,18.41
2019-01-10T01:25:24.170Z,18.51
2019-01-10T01:26:24.145Z,18.39
2019-01-10T01:27:24.147Z,18.42
2019-01-10T01:28:24.115Z,18.36
2019-01-10T01:29:24.092Z,18.46
2019-01-10T01:30:24.110Z,18.39
2019-01-10T01:31:24.120Z,18.39
2019-01-10T01:32:27.956Z,18.44
2019-01-10T01:33:24.063Z,18.41
2019-01-10T01:34:24.067Z,18.36
2019-01-10T01:35:24.041Z,18.38
2019-01-10T01:36:24.032Z,18.47
2019-01-10T01:37:24.039Z,18.41
2019-01-10T01:38:24.025Z,18.41
2019-01-10T01:39:24.004Z,18.46
2019-01-10T01:40:23.970Z,18.42
2019-01-10T01:41:23.966Z,18.42
2019-01-10T01:42:23.961Z,18.36
2019-01-10T01:43:23.972Z,18.44
2019-01-10T01:44:23.950Z,18.47
2019-01-10T01:45:24.249Z,18.42
2019-01-10T01:46:23.920Z,18.47
2019-01-10T01:47:23.899Z,18.39
2019-01-10T01:48:23.909Z,18.44
2019-01-10T01:49:23.896Z,18.41
2019-01-10T01:50:23.884Z,18.32
2019-01-10T01:51:23.869Z,18.46
2019-01-10T01:52:23.847Z,18.46
2019-01-10T01:53:23.833Z,18.46
2019-01-10T01:54:23.898Z,18.39
2019-01-10T01:55:23.821Z,18.44
2019-01-10T01:56:23.866Z,18.35
2019-01-10T01:57:23.780Z,18.41
2019-01-10T01:58:23.847Z,18.44
2019-01-10T01:59:23.852Z,18.46
2019-01-10T02:00:23.758Z,18.41
2019-01-10T02:01:23.759Z,18.36
2019-01-10T02:02:23.730Z,18.38
2019-01-10T02:03:23.726Z,18.38
2019-01-10T02:04:23.729Z,18.38
2019-01-10T02:05:23.692Z,18.32
2019-01-10T02:06:23.735Z,18.38
2019-01-10T02:07:23.671Z,18.29
2019-01-10T02:08:23.655Z,18.38
2019-01-10T02:09:23.671Z,18.38
2019-01-10T02:10:23.647Z,18.36
2019-01-10T02:11:23.626Z,18.38
2019-01-10T02:12:23.621Z,18.29
2019-01-10T02:13:23.604Z,18.36
2019-01-10T02:14:23.609Z,18.35
2019-01-10T02:15:23.607Z,18.34
2019-01-10T02:16:23.600Z,18.39
2019-01-10T02:17:23.565Z,18.34
2019-01-10T02:18:23.572Z,18.34
2019-01-10T02:19:23.649Z,18.35
2019-01-10T02:20:23.547Z,18.34
2019-01-10T02:21:23.557Z,18.34
2019-01-10T02:22:23.504Z,18.39
2019-01-10T02:23:23.512Z,18.31
2019-01-10T02:24:23.489Z,18.28
2019-01-10T02:25:23.535Z,18.35
2019-01-10T02:26:23.460Z,18.31
2019-01-10T02:27:23.506Z,18.35
2019-01-10T02:28:23.469Z,18.35
2019-01-10T02:29:23.449Z,18.36
2019-01-10T02:30:23.414Z,18.32
2019-01-10T02:31:23.416Z,18.36
2019-01-10T02:32:23.394Z,18.36
2019-01-10T02:33:23.385Z,18.36
2019-01-10T02:34:23.412Z,18.39
2019-01-10T02:35:23.365Z,18.39
2019-01-10T02:36:23.349Z,18.31
2019-01-10T02:37:23.344Z,18.35
2019-01-10T02:38:23.377Z,18.35
2019-01-10T02:39:23.367Z,18.39
2019-01-10T02:40:23.351Z,18.32
2019-01-10T02:41:23.322Z,18.36
2019-01-10T02:42:23.301Z,18.36
2019-01-10T02:43:26.586Z,18.31
2019-01-10T02:44:23.294Z,18.38
2019-01-10T02:45:23.274Z,18.32
2019-01-10T02:46:23.244Z,18.35
2019-01-10T02:47:23.236Z,18.35
2019-01-10T02:48:23.237Z,18.35
2019-01-10T02:49:23.222Z,18.29
2019-01-10T02:50:23.201Z,18.29
2019-01-10T02:51:23.216Z,18.35
2019-01-10T02:52:23.186Z,18.35
2019-01-10T02:53:23.158Z,18.34
2019-01-10T02:54:23.175Z,18.31
2019-01-10T02:55:23.174Z,18.35
2019-01-10T02:56:23.120Z,18.34
2019-01-10T02:57:23.124Z,18.41
2019-01-10T02:58:23.121Z,18.35
2019-01-10T02:59:23.105Z,18.35
2019-01-10T03:00:23.142Z,18.31
2019-01-10T03:01:23.078Z,18.36
2019-01-10T03:02:23.086Z,18.35
2019-01-10T03:03:23.062Z,18.32
2019-01-10T03:04:23.066Z,18.23
2019-01-10T03:05:23.030Z,18.31
2019-01-10T03:06:23.270Z,18.41
2019-01-10T03:07:22.997Z,18.31
2019-01-10T03:08:23.103Z,18.32
2019-01-10T03:09:23.229Z,18.36
2019-01-10T03:10:22.990Z,18.35
2019-01-10T03:11:22.952Z,18.38
2019-01-10T03:12:22.955Z,18.36
2019-01-10T03:13:22.940Z,18.35
2019-01-10T03:14:22.943Z,18.35
2019-01-10T03:15:22.942Z,18.35
2019-01-10T03:16:22.916Z,18.35
2019-01-10T03:17:22.890Z,18.34
2019-01-10T03:18:22.918Z,18.38
2019-01-10T03:19:22.883Z,18.31
2019-01-10T03:20:22.916Z,18.31
2019-01-10T03:21:22.906Z,18.35
2019-01-10T03:22:22.881Z,18.32
2019-01-10T03:23:22.821Z,18.35
2019-01-10T03:24:22.837Z,18.36
2019-01-10T03:25:22.835Z,18.35
2019-01-10T03:26:22.794Z,18.35
2019-01-10T03:27:22.801Z,18.36
2019-01-10T03:28:22.781Z,18.34
2019-01-10T03:29:22.757Z,18.32
2019-01-10T03:30:22.814Z,18.36
2019-01-10T03:31:22.755Z,18.34
2019-01-10T03:32:22.727Z,18.32
2019-01-10T03:33:23.640Z,18.35
2019-01-10T03:34:22.704Z,18.35
2019-01-10T03:35:22.735Z,18.35
2019-01-10T03:36:22.682Z,18.38
2019-01-10T03:37:22.687Z,18.44
2019-01-10T03:38:22.696Z,18.41
2019-01-10T03:39:22.698Z,18.31
2019-01-10T03:40:23.272Z,18.35
2019-01-10T03:41:22.641Z,18.34
2019-01-10T03:42:22.702Z,18.36
2019-01-10T03:43:22.643Z,18.34
2019-01-10T03:44:22.592Z,18.38
2019-01-10T03:45:22.592Z,18.32
2019-01-10T03:46:22.585Z,18.35
2019-01-10T03:47:22.570Z,18.35
2019-01-10T03:48:22.547Z,18.35
2019-01-10T03:49:22.588Z,18.28
2019-01-10T03:50:22.555Z,18.41
2019-01-10T03:51:22.657Z,18.28
2019-01-10T03:52:22.552Z,18.42
2019-01-10T03:53:22.491Z,18.46
2019-01-10T03:54:22.485Z,18.34
2019-01-10T03:55:22.481Z,18.32
2019-01-10T03:56:22.467Z,18.31
2019-01-10T03:57:22.446Z,18.35
2019-01-10T03:58:22.427Z,18.35
2019-01-10T03:59:22.422Z,18.35
2019-01-10T04:00:22.539Z,18.35
2019-01-10T04:01:22.435Z,18.36
2019-01-10T04:02:22.381Z,18.34
2019-01-10T04:03:22.384Z,18.36
2019-01-10T04:04:22.364Z,18.36
2019-01-10T04:05:22.362Z,18.31
2019-01-10T04:06:22.365Z,18.35
2019-01-10T04:07:22.370Z,18.34
2019-01-10T04:08:22.329Z,18.35
2019-01-10T04:09:22.320Z,18.35
2019-01-10T04:10:22.389Z,18.39
2019-01-10T04:11:22.286Z,18.39
2019-01-10T04:12:22.277Z,18.29
2019-01-10T04:13:22.307Z,18.32
2019-01-10T04:14:22.249Z,18.35
2019-01-10T04:15:22.256Z,18.38
2019-01-10T04:16:22.232Z,18.38
2019-01-10T04:17:22.222Z,18.29
2019-01-10T04:18:22.222Z,18.32
2019-01-10T04:19:22.195Z,18.34
2019-01-10T04:20:22.195Z,18.38
2019-01-10T04:21:22.171Z,18.38
2019-01-10T04:22:22.269Z,18.35
2019-01-10T04:23:22.162Z,18.38
2019-01-10T04:24:22.141Z,18.29
2019-01-10T04:25:24.412Z,18.35
2019-01-10T04:26:22.118Z,18.36
2019-01-10T04:27:22.117Z,18.23
2019-01-10T04:28:22.096Z,18.35
2019-01-10T04:29:22.102Z,18.38
2019-01-10T04:30:22.131Z,18.32
2019-01-10T04:31:22.066Z,18.36
2019-01-10T04:32:22.074Z,18.32
2019-01-10T04:33:22.044Z,18.38
2019-01-10T04:34:22.031Z,18.36
2019-01-10T04:35:22.024Z,18.31
2019-01-10T04:36:22.054Z,18.31
2019-01-10T04:37:21.996Z,18.39
2019-01-10T04:38:21.980Z,18.36
2019-01-10T04:39:21.971Z,18.36
2019-01-10T04:40:21.986Z,18.35
2019-01-10T04:41:21.946Z,18.31
2019-01-10T04:42:21.967Z,18.29
2019-01-10T04:43:21.923Z,18.34
2019-01-10T04:44:21.923Z,18.35
2019-01-10T04:45:21.908Z,18.39
2019-01-10T04:46:21.894Z,18.28
2019-01-10T04:47:21.876Z,18.38
2019-01-10T04:48:21.879Z,18.38
2019-01-10T04:49:21.857Z,18.32
2019-01-10T04:50:21.851Z,18.36
2019-01-10T04:51:21.875Z,18.31
2019-01-10T04:52:21.819Z,18.36
2019-01-10T04:53:21.811Z,18.31
2019-01-10T04:54:21.802Z,18.31
2019-01-10T04:55:21.813Z,18.36
2019-01-10T04:56:21.810Z,18.38
2019-01-10T04:57:21.771Z,18.34
2019-01-10T04:58:21.763Z,18.31
2019-01-10T04:59:21.749Z,18.35
2019-01-10T05:00:21.769Z,18.32
2019-01-10T05:01:21.807Z,18.35
2019-01-10T05:02:21.750Z,18.29
2019-01-10T05:03:21.768Z,18.26
2019-01-10T05:04:21.715Z,18.29
2019-01-10T05:05:21.696Z,18.29
2019-01-10T05:06:21.689Z,18.32
2019-01-10T05:07:21.658Z,18.31
2019-01-10T05:08:21.648Z,18.31
2019-01-10T05:09:21.630Z,18.23
2019-01-10T05:10:21.630Z,18.28
2019-01-10T05:11:21.625Z,18.28
2019-01-10T05:12:21.600Z,18.32
2019-01-10T05:13:21.596Z,18.34
2019-01-10T05:14:21.586Z,18.36
2019-01-10T05:15:21.571Z,18.38
2019-01-10T05:16:21.572Z,18.25
2019-01-10T05:17:21.598Z,18.29
2019-01-10T05:18:21.535Z,18.28
2019-01-10T05:19:21.575Z,18.31
2019-01-10T05:20:21.528Z,18.26
2019-01-10T05:21:21.510Z,18.23
2019-01-10T05:22:21.492Z,18.20
2019-01-10T05:23:22.221Z,18.32
2019-01-10T05:24:21.542Z,18.26
2019-01-10T05:25:21.465Z,18.28
2019-01-10T05:26:21.463Z,18.31
2019-01-10T05:27:21.465Z,18.28
2019-01-10T05:28:21.439Z,18.26
2019-01-10T05:29:21.404Z,18.36
2019-01-10T05:30:21.402Z,18.34
2019-01-10T05:31:21.400Z,18.31
2019-01-10T05:32:21.399Z,18.32
2019-01-10T05:33:21.362Z,18.29
2019-01-10T05:34:21.420Z,18.32
2019-01-10T05:35:21.337Z,18.38
2019-01-10T05:36:21.342Z,18.35
2019-01-10T05:37:21.341Z,18.31
2019-01-10T05:38:21.462Z,18.35
2019-01-10T05:39:21.314Z,18.31
2019-01-10T05:40:21.286Z,18.32
2019-01-10T05:41:21.288Z,18.29
2019-01-10T05:42:21.264Z,18.29
2019-01-10T05:43:21.259Z,18.31
2019-01-10T05:44:26.475Z,18.28
2019-01-10T05:45:21.252Z,18.31
2019-01-10T05:46:21.249Z,18.41
2019-01-10T05:47:21.241Z,18.36
2019-01-10T05:48:21.242Z,18.32
2019-01-10T05:49:21.197Z,18.31
2019-01-10T05:50:21.201Z,18.28
2019-01-10T05:51:21.183Z,18.35
2019-01-10T05:52:21.166Z,18.32
2019-01-10T05:53:21.142Z,18.28
2019-01-10T05:54:21.136Z,18.31
2019-01-10T05:55:21.123Z,18.32
2019-01-10T05:56:21.167Z,18.29
2019-01-10T05:57:21.104Z,18.32
2019-01-10T05:58:21.124Z,18.32
2019-01-10T05:59:21.094Z,18.32
2019-01-10T06:00:21.062Z,18.32
2019-01-10T06:01:21.085Z,18.28
2019-01-10T06:02:21.073Z,18.29
2019-01-10T06:03:21.030Z,18.28
2019-01-10T06:04:21.019Z,18.32
2019-01-10T06:05:21.024Z,18.29
2019-01-10T06:06:21.076Z,18.23
2019-01-10T06:07:20.991Z,18.31
2019-01-10T06:08:20.979Z,18.31
2019-01-10T06:09:20.964Z,18.36
2019-01-10T06:10:20.952Z,18.29
2019-01-10T06:11:20.952Z,18.34
2019-01-10T06:12:20.936Z,18.38
2019-01-10T06:13:20.931Z,18.31
2019-01-10T06:14:20.901Z,18.31
2019-01-10T06:15:20.982Z,18.32
2019-01-10T06:16:20.891Z,18.25
2019-01-10T06:17:20.879Z,18.35
2019-01-10T06:18:20.902Z,18.23
2019-01-10T06:19:26.684Z,18.38
2019-01-10T06:20:20.841Z,18.28
2019-01-10T06:21:20.850Z,18.34
2019-01-10T06:22:20.823Z,18.26
2019-01-10T06:23:20.829Z,18.31
2019-01-10T06:24:20.817Z,18.28
2019-01-10T06:25:20.810Z,18.32
2019-01-10T06:26:20.818Z,18.31
2019-01-10T06:27:20.766Z,18.36
2019-01-10T06:28:20.748Z,18.29
2019-01-10T06:29:20.746Z,18.29
2019-01-10T06:30:20.744Z,18.32
2019-01-10T06:31:20.759Z,18.31
2019-01-10T06:32:20.733Z,18.31
2019-01-10T06:33:20.693Z,18.35
2019-01-10T06:34:20.788Z,18.34
2019-01-10T06:35:20.676Z,18.34
2019-01-10T06:36:20.661Z,18.38
2019-01-10T06:37:20.660Z,18.36
2019-01-10T06:38:20.686Z,18.34
2019-01-10T06:39:20.630Z,18.31
2019-01-10T06:40:20.625Z,18.25
2019-01-10T06:41:20.609Z,18.35
2019-01-10T06:42:20.612Z,18.38
2019-01-10T06:43:20.825Z,18.35
2019-01-10T06:44:21.598Z,18.29
2019-01-10T06:45:22.536Z,18.36
2019-01-10T06:46:20.755Z,18.38
2019-01-10T06:47:20.546Z,18.36
2019-01-10T06:48:20.688Z,18.36
2019-01-10T06:49:20.527Z,18.34
2019-01-10T06:50:20.526Z,18.35
2019-01-10T06:51:20.502Z,18.34
2019-01-10T06:52:20.531Z,18.36
2019-01-10T06:53:20.478Z,18.42
2019-01-10T06:54:20.465Z,18.34
2019-01-10T06:55:20.562Z,18.38
2019-01-10T06:56:20.522Z,18.38
2019-01-10T06:57:20.440Z,18.34
2019-01-10T06:58:20.422Z,18.35
2019-01-10T06:59:20.420Z,18.44
2019-01-10T07:00:20.395Z,18.46
2019-01-10T07:01:20.388Z,18.39
2019-01-10T07:02:20.415Z,18.38
2019-01-10T07:03:20.374Z,18.47
2019-01-10T07:04:20.419Z,18.41
2019-01-10T07:05:20.350Z,18.41
2019-01-10T07:06:20.342Z,18.38
2019-01-10T07:07:20.334Z,18.35
2019-01-10T07:08:20.328Z,18.41
2019-01-10T07:09:20.289Z,18.39
2019-01-10T07:10:20.318Z,18.46
2019-01-10T07:11:20.859Z,18.46
2019-01-10T07:12:20.278Z,18.47
2019-01-10T07:13:20.278Z,18.44
2019-01-10T07:14:20.235Z,18.42
2019-01-10T07:15:20.238Z,18.41
2019-01-10T07:16:20.227Z,18.47
2019-01-10T07:17:20.315Z,18.44
2019-01-10T07:18:20.203Z,18.38
2019-01-10T07:19:20.181Z,18.42
2019-01-10T07:20:20.181Z,18.42
2019-01-10T07:21:20.176Z,18.41
2019-01-10T07:22:20.233Z,18.36
2019-01-10T07:23:23.977Z,18.41
2019-01-10T07:24:21.222Z,18.36
2019-01-10T07:25:23.116Z,18.42
2019-01-10T07:26:20.103Z,18.41
2019-01-10T07:27:20.096Z,18.39
2019-01-10T07:28:20.119Z,18.39
2019-01-10T07:29:20.077Z,18.42
2019-01-10T07:30:20.066Z,18.47
2019-01-10T07:31:20.134Z,18.44
2019-01-10T07:32:20.069Z,18.50
2019-01-10T07:33:20.033Z,18.53
2019-01-10T07:34:20.017Z,18.49
2019-01-10T07:35:20.028Z,18.46
2019-01-10T07:36:19.993Z,18.46
2019-01-10T07:37:19.994Z,18.49
2019-01-10T07:38:19.981Z,18.57
2019-01-10T07:39:19.979Z,18.50
2019-01-10T07:40:20.009Z,18.56
2019-01-10T07:41:19.945Z,18.50
2019-01-10T07:42:19.984Z,18.53
2019-01-10T07:43:19.956Z,18.59
2019-01-10T07:44:19.938Z,18.56
2019-01-10T07:45:19.900Z,18.54
2019-01-10T07:46:19.893Z,18.46
2019-01-10T07:47:19.959Z,18.51
2019-01-10T07:48:19.927Z,18.56
2019-01-10T07:49:21.605Z,18.57
2019-01-10T07:50:19.895Z,18.62
2019-01-10T07:51:19.914Z,18.59
2019-01-10T07:52:19.897Z,18.59
2019-01-10T07:53:19.886Z,18.60
2019-01-10T07:54:19.792Z,18.64
2019-01-10T07:55:20.892Z,18.65
2019-01-10T07:56:19.767Z,18.60
2019-01-10T07:57:19.759Z,18.64
2019-01-10T07:58:22.133Z,18.60
2019-01-10T07:59:19.751Z,18.68
2019-01-10T08:00:19.730Z,18.64
2019-01-10T08:01:19.715Z,18.68
2019-01-10T08:02:19.749Z,18.62
2019-01-10T08:03:19.723Z,18.62
2019-01-10T08:04:19.676Z,18.66
2019-01-10T08:05:19.706Z,18.64
2019-01-10T08:06:19.725Z,18.59
2019-01-10T08:07:19.664Z,18.62
2019-01-10T08:08:19.703Z,18.60
2019-01-10T08:09:19.651Z,18.59
2019-01-10T08:10:19.643Z,18.60
2019-01-10T08:11:19.668Z,18.64
2019-01-10T08:12:19.722Z,18.60
2019-01-10T08:13:19.718Z,18.66
2019-01-10T08:14:19.635Z,18.64
2019-01-10T08:15:19.608Z,18.60
2019-01-10T08:16:19.547Z,18.62
2019-01-10T08:17:19.593Z,18.62
2019-01-10T08:18:19.611Z,18.66
2019-01-10T08:19:19.587Z,18.66
2019-01-10T08:20:19.558Z,18.64
2019-01-10T08:21:19.560Z,18.56
2019-01-10T08:22:27.485Z,18.60
2019-01-10T08:23:19.524Z,18.62
2019-01-10T08:24:19.523Z,18.62
2019-01-10T08:25:19.492Z,18.62
2019-01-10T08:26:19.440Z,18.66
2019-01-10T08:27:19.428Z,18.64
2019-01-10T08:28:19.514Z,18.60
2019-01-10T08:29:18.761Z,18.66
2019-01-10T08:30:19.379Z,18.57
2019-01-10T08:31:19.393Z,18.64
2019-01-10T08:32:19.361Z,18.62
2019-01-10T08:33:19.391Z,18.64
2019-01-10T08:34:19.334Z,18.60
2019-01-10T08:35:19.407Z,18.65
2019-01-10T08:36:19.352Z,18.60
2019-01-10T08:37:21.646Z,18.64
2019-01-10T08:38:19.315Z,18.65
2019-01-10T08:39:19.851Z,18.76
2019-01-10T08:40:19.289Z,18.65
2019-01-10T08:41:19.264Z,18.64
2019-01-10T08:42:19.256Z,18.69
2019-01-10T08:43:19.365Z,18.76
2019-01-10T08:44:19.237Z,18.78
2019-01-10T08:45:21.929Z,18.83
2019-01-10T08:46:19.271Z,18.84
2019-01-10T08:47:19.202Z,18.86
2019-01-10T08:48:19.260Z,18.87
2019-01-10T08:49:19.270Z,18.90
2019-01-10T08:50:19.251Z,18.99
2019-01-10T08:51:22.081Z,19.01
2019-01-10T08:52:19.213Z,19.01
2019-01-10T08:53:21.682Z,19.01
2019-01-10T08:54:19.199Z,19.17
2019-01-10T08:55:19.244Z,19.06
2019-01-10T08:56:19.188Z,19.09
2019-01-10T08:57:19.147Z,19.09
2019-01-10T08:58:19.127Z,19.10
2019-01-10T08:59:19.131Z,18.99
2019-01-10T09:00:19.138Z,19.13
2019-01-10T09:01:19.105Z,19.06
2019-01-10T09:02:19.134Z,18.97
2019-01-10T09:03:19.065Z,19.07
2019-01-10T09:04:19.105Z,18.94
2019-01-10T09:05:19.067Z,18.96
2019-01-10T09:06:19.431Z,18.93
2019-01-10T09:07:19.048Z,19.01
2019-01-10T09:08:20.276Z,18.87
2019-01-10T09:09:19.071Z,19.01
2019-01-10T09:10:22.532Z,18.99
2019-01-10T09:11:19.001Z,18.91
2019-01-10T09:12:22.994Z,18.94
2019-01-10T09:13:22.020Z,18.94
2019-01-10T09:14:18.983Z,18.87
2019-01-10T09:15:25.310Z,18.86
2019-01-10T09:16:19.003Z,18.89
2019-01-10T09:17:18.996Z,18.84
2019-01-10T09:18:18.925Z,18.84
2019-01-10T09:19:19.943Z,18.83
2019-01-10T09:20:21.971Z,18.89
2019-01-10T09:21:18.905Z,18.83
2019-01-10T09:22:19.928Z,18.79
2019-01-10T09:23:18.854Z,18.79
2019-01-10T09:24:18.812Z,18.84
2019-01-10T09:25:18.849Z,18.89
2019-01-10T09:26:18.800Z,18.79
2019-01-10T09:27:18.830Z,18.86
2019-01-10T09:28:18.752Z,18.79
2019-01-10T09:29:18.782Z,18.82
2019-01-10T09:30:18.749Z,18.93
2019-01-10T09:31:18.717Z,18.83
2019-01-10T09:32:19.025Z,18.90
2019-01-10T09:33:18.712Z,18.91
2019-01-10T09:34:24.614Z,18.83
2019-01-10T09:35:18.662Z,18.82
2019-01-10T09:36:18.698Z,18.86
2019-01-10T09:37:18.637Z,18.89
2019-01-10T09:38:18.672Z,18.83
2019-01-10T09:39:18.719Z,18.89
2019-01-10T09:40:18.621Z,18.89
2019-01-10T09:41:18.612Z,18.87
2019-01-10T09:42:18.610Z,18.89
2019-01-10T09:43:18.592Z,18.84
2019-01-10T09:44:18.646Z,18.84
2019-01-10T09:45:18.579Z,18.83
2019-01-10T09:46:20.699Z,18.83
2019-01-10T09:47:18.585Z,18.83
2019-01-10T09:48:23.045Z,18.86
2019-01-10T09:49:18.529Z,18.87
2019-01-10T09:50:18.506Z,18.90
2019-01-10T09:51:18.500Z,18.91
2019-01-10T09:52:19.092Z,18.86
2019-01-10T09:53:18.954Z,18.79
2019-01-10T09:54:18.481Z,18.82
2019-01-10T09:55:19.232Z,18.86
2019-01-10T09:56:19.334Z,18.82
2019-01-10T09:57:18.421Z,18.83
2019-01-10T09:58:18.471Z,18.86
2019-01-10T09:59:18.561Z,18.86
2019-01-10T10:00:18.422Z,18.86
2019-01-10T10:01:18.481Z,18.84
2019-01-10T10:02:18.408Z,18.83
2019-01-10T10:03:18.357Z,18.87
2019-01-10T10:04:18.622Z,18.90
2019-01-10T10:05:18.328Z,18.90
2019-01-10T10:06:18.336Z,18.97
2019-01-10T10:07:18.322Z,18.96
2019-01-10T10:08:18.298Z,18.89
2019-01-10T10:09:18.311Z,18.94
2019-01-10T10:10:18.288Z,18.87
2019-01-10T10:11:18.431Z,18.93
2019-01-10T10:12:18.267Z,18.94
2019-01-10T10:13:18.239Z,18.91
2019-01-10T10:14:18.243Z,18.93
2019-01-10T10:15:18.359Z,18.99
2019-01-10T10:16:18.200Z,18.90
2019-01-10T10:17:18.199Z,18.94
2019-01-10T10:18:18.189Z,18.91
2019-01-10T10:19:18.180Z,19.01
2019-01-10T10:20:18.164Z,18.93
2019-01-10T10:21:19.098Z,18.99
2019-01-10T10:22:18.137Z,18.91
2019-01-10T10:23:26.832Z,18.89
2019-01-10T10:24:18.127Z,18.99
2019-01-10T10:25:18.138Z,18.94
2019-01-10T10:26:18.102Z,18.93
2019-01-10T10:27:18.102Z,18.93
2019-01-10T10:28:18.090Z,18.89
2019-01-10T10:29:18.068Z,18.93
2019-01-10T10:30:19.246Z,18.93
2019-01-10T10:31:18.052Z,18.96
2019-01-10T10:32:18.023Z,19.01
2019-01-10T10:33:18.022Z,18.96
2019-01-10T10:34:19.148Z,18.96
2019-01-10T10:35:18.136Z,18.89
2019-01-10T10:36:18.058Z,18.94
2019-01-10T10:37:17.971Z,18.94
2019-01-10T10:38:17.965Z,18.99
2019-01-10T10:39:17.973Z,19.01
2019-01-10T10:40:17.935Z,18.91
2019-01-10T10:41:18.949Z,19.01
2019-01-10T10:42:17.911Z,19.06
2019-01-10T10:43:17.898Z,19.02
2019-01-10T10:44:21.349Z,19.02
2019-01-10T10:45:17.887Z,19.12
2019-01-10T10:46:17.878Z,19.05
2019-01-10T10:47:17.929Z,19.12
2019-01-10T10:48:17.866Z,19.10
2019-01-10T10:49:17.883Z,19.10
2019-01-10T10:50:17.819Z,19.16
2019-01-10T10:51:17.803Z,19.10
2019-01-10T10:52:17.865Z,19.13
2019-01-10T10:53:17.778Z,19.17
2019-01-10T10:54:17.800Z,19.21
2019-01-10T10:55:17.777Z,19.07
2019-01-10T10:56:17.764Z,19.21
2019-01-10T10:57:17.808Z,19.13
2019-01-10T10:58:17.750Z,19.10
2019-01-10T10:59:17.792Z,19.07
2019-01-10T11:00:17.802Z,19.06
2019-01-10T11:01:17.706Z,19.12
2019-01-10T11:02:17.757Z,19.16
2019-01-10T11:03:17.679Z,19.09
2019-01-10T11:04:19.675Z,19.13
2019-01-10T11:05:17.905Z,19.13
2019-01-10T11:06:17.639Z,19.06
2019-01-10T11:07:17.630Z,19.05
2019-01-10T11:08:17.702Z,19.09
2019-01-10T11:09:17.640Z,19.07
2019-01-10T11:10:17.947Z,19.10
2019-01-10T11:11:17.620Z,19.10
2019-01-10T11:12:17.577Z,19.05
2019-01-10T11:13:17.602Z,19.13
2019-01-10T11:14:17.570Z,19.07
2019-01-10T11:15:17.556Z,19.10
2019-01-10T11:16:23.404Z,19.10
2019-01-10T11:17:17.550Z,19.07
2019-01-10T11:18:18.155Z,19.12
2019-01-10T11:19:18.467Z,19.09
2019-01-10T11:20:17.515Z,19.09
2019-01-10T11:21:17.478Z,19.16
2019-01-10T11:22:17.459Z,19.06
2019-01-10T11:23:17.515Z,19.15
2019-01-10T11:24:17.517Z,19.15
2019-01-10T11:25:17.443Z,19.16
2019-01-10T11:26:18.466Z,19.09
2019-01-10T11:27:17.457Z,19.16
2019-01-10T11:28:17.406Z,19.05
2019-01-10T11:29:17.444Z,19.10
2019-01-10T11:30:17.393Z,19.07
2019-01-10T11:31:17.415Z,19.06
2019-01-10T11:32:17.379Z,19.13
2019-01-10T11:33:17.324Z,19.06
2019-01-10T11:34:17.319Z,19.13
2019-01-10T11:35:17.371Z,19.06
2019-01-10T11:36:17.319Z,19.06
2019-01-10T11:37:17.319Z,19.09
2019-01-10T11:38:17.291Z,19.13
2019-01-10T11:39:17.276Z,19.06
2019-01-10T11:40:17.274Z,19.17
2019-01-10T11:41:17.284Z,19.20
2019-01-10T11:42:17.241Z,19.13
2019-01-10T11:43:17.250Z,19.20
2019-01-10T11:44:18.895Z,19.15
2019-01-10T11:45:17.217Z,19.24
2019-01-10T11:46:19.638Z,19.23
2019-01-10T11:47:17.184Z,19.12
2019-01-10T11:48:17.255Z,19.17
2019-01-10T11:49:17.188Z,19.20
2019-01-10T11:50:17.315Z,19.24
2019-01-10T11:51:17.178Z,19.13
2019-01-10T11:52:17.121Z,19.23
2019-01-10T11:53:17.129Z,19.27
2019-01-10T11:54:17.103Z,19.21
2019-01-10T11:55:17.166Z,19.23
2019-01-10T11:56:17.097Z,19.25
2019-01-10T11:57:17.455Z,19.13
2019-01-10T11:58:17.052Z,19.16
2019-01-10T11:59:17.090Z,19.17
2019-01-10T12:00:17.061Z,19.24
2019-01-10T12:01:17.036Z,19.28
2019-01-10T12:02:17.008Z,19.15
2019-01-10T12:03:16.992Z,19.25
2019-01-10T12:04:17.030Z,19.16
2019-01-10T12:05:16.986Z,19.15
2019-01-10T12:06:16.972Z,19.21
2019-01-10T12:07:16.980Z,19.24
2019-01-10T12:08:18.067Z,19.24
2019-01-10T12:09:17.097Z,19.16
2019-01-10T12:10:16.947Z,19.21
2019-01-10T12:11:16.921Z,19.28
2019-01-10T12:12:16.907Z,19.30
2019-01-10T12:13:17.736Z,19.24
2019-01-10T12:14:16.869Z,19.23
2019-01-10T12:15:17.813Z,19.20
2019-01-10T12:16:17.634Z,19.24
2019-01-10T12:17:18.190Z,19.21
2019-01-10T12:18:16.818Z,19.24
2019-01-10T12:19:16.905Z,19.27
2019-01-10T12:20:16.877Z,19.23
2019-01-10T12:21:16.854Z,19.23
2019-01-10T12:22:16.800Z,19.24
2019-01-10T12:23:16.964Z,19.23
2019-01-10T12:24:16.771Z,19.24
2019-01-10T12:25:16.738Z,19.21
2019-01-10T12:26:16.775Z,19.21
2019-01-10T12:27:23.589Z,19.17
2019-01-10T12:28:16.982Z,19.17
2019-01-10T12:29:16.725Z,19.20
2019-01-10T12:30:16.685Z,19.17
2019-01-10T12:31:16.702Z,19.20
2019-01-10T12:32:16.978Z,19.12
2019-01-10T12:33:16.663Z,19.16
2019-01-10T12:34:16.663Z,19.24
2019-01-10T12:35:16.639Z,19.20
2019-01-10T12:36:16.704Z,19.24
2019-01-10T12:37:16.617Z,19.24
2019-01-10T12:38:16.688Z,19.27
2019-01-10T12:39:16.673Z,19.30
2019-01-10T12:40:16.581Z,19.25
2019-01-10T12:41:16.593Z,19.28
2019-01-10T12:42:16.569Z,19.27
2019-01-10T12:43:16.550Z,19.34
2019-01-10T12:44:16.529Z,19.24
2019-01-10T12:45:17.314Z,19.32
2019-01-10T12:46:16.738Z,19.35
2019-01-10T12:47:16.503Z,19.38
2019-01-10T12:48:16.523Z,19.38
2019-01-10T12:49:16.499Z,19.31
2019-01-10T12:50:16.552Z,19.31
2019-01-10T12:51:16.495Z,19.32
2019-01-10T12:52:17.343Z,19.34